sensor_id;sensor_type;location;lat;lon;timestamp;P1;durP1;ratioP1;P2;durP2;ratioP2
9809;SDS011;4944;52.514;13.192;2023-04-25T00:00:46;1.87;;;1.67;;
9809;SDS011;4944;52.514;13.192;2023-04-25T00:03:13;3.13;;;1.90;;
9809;SDS011;4944;52.514;13.192;2023-04-25T00:05:41;2.10;;;1.90;;
9809;SDS011;4944;52.514;13.192;2023-04-25T00:08:09;1.73;;;1.50;;
9809;SDS011;4944;52.514;13.192;2023-04-25T00:10:36;2.13;;;1.90;;
9809;SDS011;4944;52.514;13.192;2023-04-25T00:13:03;1.73;;;1.63;;
9809;SDS011;4944;52.514;13.192;2023-04-25T00:15:30;1.97;;;1.80;;
9809;SDS011;4944;52.514;13.192;2023-04-25T00:17:57;2.90;;;1.73;;
9809;SDS011;4944;52.514;13.192;2023-04-25T00:20:24;3.47;;;1.80;;
9809;SDS011;4944;52.514;13.192;2023-04-25T00:22:50;1.97;;;1.77;;
9809;SDS011;4944;52.514;13.192;2023-04-25T00:25:19;4.00;;;1.70;;
9809;SDS011;4944;52.514;13.192;2023-04-25T00:27:46;2.00;;;1.70;;
9809;SDS011;4944;52.514;13.192;2023-04-25T00:30:14;2.07;;;1.93;;
9809;SDS011;4944;52.514;13.192;2023-04-25T00:32:41;2.43;;;2.00;;
9809;SDS011;4944;52.514;13.192;2023-04-25T00:35:08;6.93;;;2.10;;
9809;SDS011;4944;52.514;13.192;2023-04-25T00:37:35;2.30;;;2.00;;
9809;SDS011;4944;52.514;13.192;2023-04-25T00:40:03;2.40;;;2.07;;
9809;SDS011;4944;52.514;13.192;2023-04-25T00:42:34;2.47;;;2.07;;
9809;SDS011;4944;52.514;13.192;2023-04-25T00:45:02;2.17;;;1.97;;
9809;SDS011;4944;52.514;13.192;2023-04-25T00:47:32;2.30;;;2.10;;
9809;SDS011;4944;52.514;13.192;2023-04-25T00:49:59;4.03;;;2.43;;
9809;SDS011;4944;52.514;13.192;2023-04-25T00:52:26;3.23;;;1.90;;
9809;SDS011;4944;52.514;13.192;2023-04-25T00:54:53;3.20;;;2.40;;
9809;SDS011;4944;52.514;13.192;2023-04-25T00:57:20;3.63;;;2.20;;
9809;SDS011;4944;52.514;13.192;2023-04-25T00:59:48;2.63;;;2.40;;
9809;SDS011;4944;52.514;13.192;2023-04-25T01:02:18;3.57;;;2.23;;
9809;SDS011;4944;52.514;13.192;2023-04-25T01:04:45;4.53;;;2.30;;
9809;SDS011;4944;52.514;13.192;2023-04-25T01:07:13;4.70;;;2.50;;
9809;SDS011;4944;52.514;13.192;2023-04-25T01:09:41;4.77;;;2.20;;
9809;SDS011;4944;52.514;13.192;2023-04-25T01:12:08;2.47;;;2.23;;
9809;SDS011;4944;52.514;13.192;2023-04-25T01:14:35;2.57;;;2.27;;
9809;SDS011;4944;52.514;13.192;2023-04-25T01:17:03;2.83;;;2.30;;
9809;SDS011;4944;52.514;13.192;2023-04-25T01:19:32;3.70;;;2.37;;
9809;SDS011;4944;52.514;13.192;2023-04-25T01:22:01;5.90;;;2.53;;
9809;SDS011;4944;52.514;13.192;2023-04-25T01:24:28;2.83;;;2.43;;
9809;SDS011;4944;52.514;13.192;2023-04-25T01:26:55;5.97;;;2.77;;
9809;SDS011;4944;52.514;13.192;2023-04-25T01:29:23;3.00;;;1.87;;
9809;SDS011;4944;52.514;13.192;2023-04-25T01:31:50;4.43;;;2.50;;
9809;SDS011;4944;52.514;13.192;2023-04-25T01:34:18;3.70;;;2.40;;
9809;SDS011;4944;52.514;13.192;2023-04-25T01:36:45;4.00;;;2.30;;
9809;SDS011;4944;52.514;13.192;2023-04-25T01:39:16;3.17;;;2.50;;
9809;SDS011;4944;52.514;13.192;2023-04-25T01:41:43;3.07;;;2.20;;
9809;SDS011;4944;52.514;13.192;2023-04-25T01:44:11;3.27;;;2.20;;
9809;SDS011;4944;52.514;13.192;2023-04-25T01:46:38;4.97;;;2.87;;
9809;SDS011;4944;52.514;13.192;2023-04-25T01:49:05;2.97;;;2.47;;
9809;SDS011;4944;52.514;13.192;2023-04-25T01:51:32;3.87;;;2.50;;
9809;SDS011;4944;52.514;13.192;2023-04-25T01:54:00;5.30;;;2.70;;
9809;SDS011;4944;52.514;13.192;2023-04-25T01:56:31;4.93;;;2.60;;
9809;SDS011;4944;52.514;13.192;2023-04-25T01:58:57;5.30;;;2.70;;
9809;SDS011;4944;52.514;13.192;2023-04-25T02:01:25;3.90;;;2.73;;
9809;SDS011;4944;52.514;13.192;2023-04-25T02:03:52;4.63;;;2.47;;
9809;SDS011;4944;52.514;13.192;2023-04-25T02:06:18;3.20;;;2.23;;
9809;SDS011;4944;52.514;13.192;2023-04-25T02:08:45;3.07;;;2.87;;
9809;SDS011;4944;52.514;13.192;2023-04-25T02:11:12;3.60;;;2.60;;
9809;SDS011;4944;52.514;13.192;2023-04-25T02:13:41;3.33;;;2.30;;
9809;SDS011;4944;52.514;13.192;2023-04-25T02:16:07;3.03;;;2.60;;
9809;SDS011;4944;52.514;13.192;2023-04-25T02:18:34;3.97;;;2.87;;
9809;SDS011;4944;52.514;13.192;2023-04-25T02:21:02;5.50;;;2.83;;
9809;SDS011;4944;52.514;13.192;2023-04-25T02:23:29;5.20;;;2.90;;
9809;SDS011;4944;52.514;13.192;2023-04-25T02:25:56;3.30;;;2.60;;
9809;SDS011;4944;52.514;13.192;2023-04-25T02:28:24;3.20;;;2.37;;
9809;SDS011;4944;52.514;13.192;2023-04-25T02:30:53;5.57;;;2.83;;
9809;SDS011;4944;52.514;13.192;2023-04-25T02:33:20;4.63;;;3.13;;
9809;SDS011;4944;52.514;13.192;2023-04-25T02:35:47;4.03;;;3.10;;
9809;SDS011;4944;52.514;13.192;2023-04-25T02:38:14;3.97;;;3.10;;
9809;SDS011;4944;52.514;13.192;2023-04-25T02:40:41;3.97;;;3.07;;
9809;SDS011;4944;52.514;13.192;2023-04-25T02:43:07;3.97;;;3.07;;
9809;SDS011;4944;52.514;13.192;2023-04-25T02:45:34;5.10;;;3.03;;
9809;SDS011;4944;52.514;13.192;2023-04-25T02:48:04;7.27;;;3.20;;
9809;SDS011;4944;52.514;13.192;2023-04-25T02:50:31;6.07;;;3.13;;
9809;SDS011;4944;52.514;13.192;2023-04-25T02:52:58;5.70;;;3.00;;
9809;SDS011;4944;52.514;13.192;2023-04-25T02:55:25;4.57;;;3.17;;
9809;SDS011;4944;52.514;13.192;2023-04-25T02:57:52;6.73;;;3.00;;
9809;SDS011;4944;52.514;13.192;2023-04-25T03:00:20;7.63;;;3.33;;
9809;SDS011;4944;52.514;13.192;2023-04-25T03:02:47;4.73;;;2.97;;
9809;SDS011;4944;52.514;13.192;2023-04-25T03:05:15;3.60;;;3.00;;
9809;SDS011;4944;52.514;13.192;2023-04-25T03:07:42;3.83;;;3.00;;
9809;SDS011;4944;52.514;13.192;2023-04-25T03:10:11;5.40;;;3.10;;
9809;SDS011;4944;52.514;13.192;2023-04-25T03:12:38;5.00;;;3.47;;
9809;SDS011;4944;52.514;13.192;2023-04-25T03:15:06;6.20;;;3.03;;
9809;SDS011;4944;52.514;13.192;2023-04-25T03:17:33;4.23;;;3.37;;
9809;SDS011;4944;52.514;13.192;2023-04-25T03:20:00;4.77;;;3.30;;
9809;SDS011;4944;52.514;13.192;2023-04-25T03:22:30;4.03;;;3.43;;
9809;SDS011;4944;52.514;13.192;2023-04-25T03:24:57;4.80;;;3.57;;
9809;SDS011;4944;52.514;13.192;2023-04-25T03:27:24;5.63;;;3.17;;
9809;SDS011;4944;52.514;13.192;2023-04-25T03:29:51;3.50;;;3.17;;
9809;SDS011;4944;52.514;13.192;2023-04-25T03:32:18;5.60;;;3.33;;
9809;SDS011;4944;52.514;13.192;2023-04-25T03:34:45;4.13;;;2.83;;
9809;SDS011;4944;52.514;13.192;2023-04-25T03:37:11;6.00;;;3.30;;
9809;SDS011;4944;52.514;13.192;2023-04-25T03:39:40;7.00;;;3.77;;
9809;SDS011;4944;52.514;13.192;2023-04-25T03:42:07;3.13;;;2.77;;
9809;SDS011;4944;52.514;13.192;2023-04-25T03:44:33;6.00;;;3.60;;
9809;SDS011;4944;52.514;13.192;2023-04-25T03:47:00;6.30;;;3.90;;
9809;SDS011;4944;52.514;13.192;2023-04-25T03:49:27;5.83;;;3.60;;
9809;SDS011;4944;52.514;13.192;2023-04-25T03:51:54;4.47;;;3.33;;
9809;SDS011;4944;52.514;13.192;2023-04-25T03:54:21;3.97;;;3.57;;
9809;SDS011;4944;52.514;13.192;2023-04-25T03:56:49;5.40;;;3.37;;
9809;SDS011;4944;52.514;13.192;2023-04-25T03:59:16;3.87;;;3.20;;
9809;SDS011;4944;52.514;13.192;2023-04-25T04:01:43;4.43;;;3.13;;
9809;SDS011;4944;52.514;13.192;2023-04-25T04:04:10;5.80;;;3.40;;
9809;SDS011;4944;52.514;13.192;2023-04-25T04:06:37;5.97;;;3.23;;
9809;SDS011;4944;52.514;13.192;2023-04-25T04:09:04;5.03;;;3.30;;
9809;SDS011;4944;52.514;13.192;2023-04-25T04:11:34;11.40;;;4.00;;
9809;SDS011;4944;52.514;13.192;2023-04-25T04:14:04;5.67;;;3.13;;
9809;SDS011;4944;52.514;13.192;2023-04-25T04:16:31;6.03;;;3.00;;
9809;SDS011;4944;52.514;13.192;2023-04-25T04:18:58;5.50;;;3.20;;
9809;SDS011;4944;52.514;13.192;2023-04-25T04:21:25;5.27;;;3.13;;
9809;SDS011;4944;52.514;13.192;2023-04-25T04:23:52;4.23;;;3.37;;
9809;SDS011;4944;52.514;13.192;2023-04-25T04:26:20;8.03;;;3.43;;
9809;SDS011;4944;52.514;13.192;2023-04-25T04:28:48;3.57;;;2.97;;
9809;SDS011;4944;52.514;13.192;2023-04-25T04:31:17;4.27;;;3.00;;
9809;SDS011;4944;52.514;13.192;2023-04-25T04:33:44;4.47;;;2.93;;
9809;SDS011;4944;52.514;13.192;2023-04-25T04:36:11;3.33;;;3.03;;
9809;SDS011;4944;52.514;13.192;2023-04-25T04:38:38;5.77;;;3.00;;
9809;SDS011;4944;52.514;13.192;2023-04-25T04:41:07;4.10;;;2.90;;
9809;SDS011;4944;52.514;13.192;2023-04-25T04:43:34;4.80;;;3.37;;
9809;SDS011;4944;52.514;13.192;2023-04-25T04:46:01;5.20;;;3.43;;
9809;SDS011;4944;52.514;13.192;2023-04-25T04:48:32;6.27;;;3.10;;
9809;SDS011;4944;52.514;13.192;2023-04-25T04:50:59;5.63;;;3.53;;
9809;SDS011;4944;52.514;13.192;2023-04-25T04:53:26;3.50;;;3.00;;
9809;SDS011;4944;52.514;13.192;2023-04-25T04:55:53;4.87;;;3.00;;
9809;SDS011;4944;52.514;13.192;2023-04-25T04:58:20;3.47;;;3.03;;
9809;SDS011;4944;52.514;13.192;2023-04-25T05:00:47;4.37;;;3.17;;
9809;SDS011;4944;52.514;13.192;2023-04-25T05:03:14;6.77;;;3.70;;
9809;SDS011;4944;52.514;13.192;2023-04-25T05:05:42;4.73;;;3.43;;
9809;SDS011;4944;52.514;13.192;2023-04-25T05:08:10;7.23;;;4.00;;
9809;SDS011;4944;52.514;13.192;2023-04-25T05:10:37;5.33;;;3.70;;
9809;SDS011;4944;52.514;13.192;2023-04-25T05:13:04;6.43;;;3.40;;
9809;SDS011;4944;52.514;13.192;2023-04-25T05:15:31;3.83;;;3.20;;
9809;SDS011;4944;52.514;13.192;2023-04-25T05:17:58;3.47;;;3.17;;
9809;SDS011;4944;52.514;13.192;2023-04-25T05:20:25;5.50;;;3.27;;
9809;SDS011;4944;52.514;13.192;2023-04-25T05:22:53;5.67;;;3.30;;
9809;SDS011;4944;52.514;13.192;2023-04-25T05:25:20;5.93;;;2.77;;
9809;SDS011;4944;52.514;13.192;2023-04-25T05:27:47;6.97;;;3.80;;
9809;SDS011;4944;52.514;13.192;2023-04-25T05:30:14;5.93;;;3.50;;
9809;SDS011;4944;52.514;13.192;2023-04-25T05:32:41;3.77;;;3.40;;
9809;SDS011;4944;52.514;13.192;2023-04-25T05:35:08;3.70;;;3.40;;
9809;SDS011;4944;52.514;13.192;2023-04-25T05:37:35;4.87;;;3.27;;
9809;SDS011;4944;52.514;13.192;2023-04-25T05:40:03;6.00;;;3.43;;
9809;SDS011;4944;52.514;13.192;2023-04-25T05:42:32;6.53;;;3.60;;
9809;SDS011;4944;52.514;13.192;2023-04-25T05:44:58;8.30;;;3.73;;
9809;SDS011;4944;52.514;13.192;2023-04-25T05:47:26;9.47;;;4.03;;
9809;SDS011;4944;52.514;13.192;2023-04-25T05:49:52;5.37;;;3.93;;
9809;SDS011;4944;52.514;13.192;2023-04-25T05:52:20;4.60;;;3.50;;
9809;SDS011;4944;52.514;13.192;2023-04-25T05:54:47;8.63;;;4.20;;
9809;SDS011;4944;52.514;13.192;2023-04-25T05:57:22;7.07;;;4.00;;
9809;SDS011;4944;52.514;13.192;2023-04-25T05:59:51;10.23;;;4.13;;
9809;SDS011;4944;52.514;13.192;2023-04-25T06:02:18;6.20;;;4.23;;
9809;SDS011;4944;52.514;13.192;2023-04-25T06:04:46;6.80;;;4.10;;
9809;SDS011;4944;52.514;13.192;2023-04-25T06:07:13;6.80;;;4.07;;
9809;SDS011;4944;52.514;13.192;2023-04-25T06:09:40;7.00;;;3.90;;
9809;SDS011;4944;52.514;13.192;2023-04-25T06:12:07;7.73;;;4.33;;
9809;SDS011;4944;52.514;13.192;2023-04-25T06:14:35;4.63;;;3.97;;
9809;SDS011;4944;52.514;13.192;2023-04-25T06:17:02;6.63;;;4.30;;
9809;SDS011;4944;52.514;13.192;2023-04-25T06:19:31;7.10;;;4.50;;
9809;SDS011;4944;52.514;13.192;2023-04-25T06:21:58;7.83;;;4.40;;
9809;SDS011;4944;52.514;13.192;2023-04-25T06:24:25;5.33;;;4.70;;
9809;SDS011;4944;52.514;13.192;2023-04-25T06:26:52;7.53;;;4.40;;
9809;SDS011;4944;52.514;13.192;2023-04-25T06:29:19;4.47;;;4.00;;
9809;SDS011;4944;52.514;13.192;2023-04-25T06:31:47;6.87;;;4.00;;
9809;SDS011;4944;52.514;13.192;2023-04-25T06:34:15;7.23;;;4.10;;
9809;SDS011;4944;52.514;13.192;2023-04-25T06:36:44;6.50;;;4.37;;
9809;SDS011;4944;52.514;13.192;2023-04-25T06:39:13;6.50;;;4.10;;
9809;SDS011;4944;52.514;13.192;2023-04-25T06:41:40;4.47;;;4.07;;
9809;SDS011;4944;52.514;13.192;2023-04-25T06:44:07;4.83;;;3.80;;
9809;SDS011;4944;52.514;13.192;2023-04-25T06:46:33;7.50;;;3.90;;
9809;SDS011;4944;52.514;13.192;2023-04-25T06:49:02;3.97;;;3.57;;
9809;SDS011;4944;52.514;13.192;2023-04-25T06:51:29;4.43;;;3.67;;
9809;SDS011;4944;52.514;13.192;2023-04-25T06:53:58;4.43;;;3.43;;
9809;SDS011;4944;52.514;13.192;2023-04-25T06:56:25;3.73;;;3.10;;
9809;SDS011;4944;52.514;13.192;2023-04-25T06:58:55;4.70;;;3.50;;
9809;SDS011;4944;52.514;13.192;2023-04-25T07:01:21;7.23;;;3.50;;
9809;SDS011;4944;52.514;13.192;2023-04-25T07:03:48;3.77;;;3.33;;
9809;SDS011;4944;52.514;13.192;2023-04-25T07:06:16;4.23;;;3.73;;
9809;SDS011;4944;52.514;13.192;2023-04-25T07:08:43;5.33;;;3.50;;
9809;SDS011;4944;52.514;13.192;2023-04-25T07:11:10;8.57;;;4.17;;
9809;SDS011;4944;52.514;13.192;2023-04-25T07:13:37;7.37;;;4.03;;
9809;SDS011;4944;52.514;13.192;2023-04-25T07:16:04;4.53;;;3.70;;
9809;SDS011;4944;52.514;13.192;2023-04-25T07:18:31;7.93;;;3.97;;
9809;SDS011;4944;52.514;13.192;2023-04-25T07:20:58;6.10;;;3.83;;
9809;SDS011;4944;52.514;13.192;2023-04-25T07:23:26;7.80;;;3.37;;
9809;SDS011;4944;52.514;13.192;2023-04-25T07:25:53;5.10;;;3.53;;
9809;SDS011;4944;52.514;13.192;2023-04-25T07:28:20;8.00;;;3.60;;
9809;SDS011;4944;52.514;13.192;2023-04-25T07:30:47;6.73;;;4.00;;
9809;SDS011;4944;52.514;13.192;2023-04-25T07:33:14;8.40;;;3.70;;
9809;SDS011;4944;52.514;13.192;2023-04-25T07:35:41;6.30;;;3.30;;
9809;SDS011;4944;52.514;13.192;2023-04-25T07:38:08;10.97;;;3.87;;
9809;SDS011;4944;52.514;13.192;2023-04-25T07:40:36;6.90;;;3.30;;
9809;SDS011;4944;52.514;13.192;2023-04-25T07:43:03;7.90;;;3.47;;
9809;SDS011;4944;52.514;13.192;2023-04-25T07:45:30;9.93;;;3.50;;
9809;SDS011;4944;52.514;13.192;2023-04-25T07:47:57;8.60;;;3.67;;
9809;SDS011;4944;52.514;13.192;2023-04-25T07:50:24;10.27;;;3.73;;
9809;SDS011;4944;52.514;13.192;2023-04-25T07:52:51;9.83;;;3.43;;
9809;SDS011;4944;52.514;13.192;2023-04-25T07:55:18;13.77;;;4.10;;
9809;SDS011;4944;52.514;13.192;2023-04-25T07:57:46;9.17;;;3.13;;
9809;SDS011;4944;52.514;13.192;2023-04-25T08:00:13;7.87;;;3.30;;
9809;SDS011;4944;52.514;13.192;2023-04-25T08:02:41;9.73;;;3.43;;
9809;SDS011;4944;52.514;13.192;2023-04-25T08:05:08;11.03;;;3.90;;
9809;SDS011;4944;52.514;13.192;2023-04-25T08:07:36;9.00;;;3.80;;
9809;SDS011;4944;52.514;13.192;2023-04-25T08:10:06;12.17;;;3.50;;
9809;SDS011;4944;52.514;13.192;2023-04-25T08:12:34;11.83;;;3.37;;
9809;SDS011;4944;52.514;13.192;2023-04-25T08:15:03;9.23;;;3.20;;
9809;SDS011;4944;52.514;13.192;2023-04-25T08:17:31;11.27;;;3.63;;
9809;SDS011;4944;52.514;13.192;2023-04-25T08:19:58;12.97;;;3.60;;
9809;SDS011;4944;52.514;13.192;2023-04-25T08:22:25;8.90;;;3.40;;
9809;SDS011;4944;52.514;13.192;2023-04-25T08:24:52;9.40;;;3.10;;
9809;SDS011;4944;52.514;13.192;2023-04-25T08:27:19;14.63;;;3.33;;
9809;SDS011;4944;52.514;13.192;2023-04-25T08:29:46;8.67;;;2.97;;
9809;SDS011;4944;52.514;13.192;2023-04-25T08:32:15;9.90;;;2.90;;
9809;SDS011;4944;52.514;13.192;2023-04-25T08:34:42;6.83;;;2.90;;
9809;SDS011;4944;52.514;13.192;2023-04-25T08:37:09;8.77;;;3.10;;
9809;SDS011;4944;52.514;13.192;2023-04-25T08:39:36;12.97;;;3.10;;
9809;SDS011;4944;52.514;13.192;2023-04-25T08:42:05;9.97;;;2.80;;
9809;SDS011;4944;52.514;13.192;2023-04-25T08:44:33;11.10;;;3.00;;
9809;SDS011;4944;52.514;13.192;2023-04-25T08:47:01;9.93;;;2.63;;
9809;SDS011;4944;52.514;13.192;2023-04-25T08:49:31;9.33;;;2.50;;
9809;SDS011;4944;52.514;13.192;2023-04-25T08:51:59;10.27;;;3.20;;
9809;SDS011;4944;52.514;13.192;2023-04-25T08:54:27;6.30;;;2.70;;
9809;SDS011;4944;52.514;13.192;2023-04-25T08:56:56;8.23;;;3.37;;
9809;SDS011;4944;52.514;13.192;2023-04-25T08:59:23;7.17;;;2.43;;
9809;SDS011;4944;52.514;13.192;2023-04-25T09:01:51;7.67;;;3.00;;
9809;SDS011;4944;52.514;13.192;2023-04-25T09:04:18;9.63;;;3.13;;
9809;SDS011;4944;52.514;13.192;2023-04-25T09:06:46;10.70;;;2.63;;
9809;SDS011;4944;52.514;13.192;2023-04-25T09:09:13;16.80;;;3.10;;
9809;SDS011;4944;52.514;13.192;2023-04-25T09:11:40;10.50;;;3.10;;
9809;SDS011;4944;52.514;13.192;2023-04-25T09:14:11;13.17;;;3.33;;
9809;SDS011;4944;52.514;13.192;2023-04-25T09:16:57;7.43;;;2.67;;
9809;SDS011;4944;52.514;13.192;2023-04-25T09:19:26;12.03;;;3.20;;
9809;SDS011;4944;52.514;13.192;2023-04-25T09:21:56;10.97;;;3.07;;
9809;SDS011;4944;52.514;13.192;2023-04-25T09:24:33;10.37;;;2.63;;
9809;SDS011;4944;52.514;13.192;2023-04-25T09:27:05;7.93;;;2.37;;
9809;SDS011;4944;52.514;13.192;2023-04-25T09:29:33;9.60;;;2.90;;
9809;SDS011;4944;52.514;13.192;2023-04-25T09:32:11;8.10;;;2.67;;
9809;SDS011;4944;52.514;13.192;2023-04-25T09:34:43;8.93;;;2.57;;
9809;SDS011;4944;52.514;13.192;2023-04-25T09:37:18;28.37;;;4.07;;
9809;SDS011;4944;52.514;13.192;2023-04-25T09:39:46;9.90;;;2.47;;
9809;SDS011;4944;52.514;13.192;2023-04-25T09:42:14;7.97;;;2.50;;
9809;SDS011;4944;52.514;13.192;2023-04-25T09:44:42;8.90;;;2.70;;
9809;SDS011;4944;52.514;13.192;2023-04-25T09:47:10;9.93;;;2.70;;
9809;SDS011;4944;52.514;13.192;2023-04-25T09:49:39;8.20;;;2.57;;
9809;SDS011;4944;52.514;13.192;2023-04-25T09:52:08;6.73;;;2.27;;
9809;SDS011;4944;52.514;13.192;2023-04-25T09:54:40;7.33;;;2.13;;
9809;SDS011;4944;52.514;13.192;2023-04-25T09:57:09;6.33;;;2.20;;
9809;SDS011;4944;52.514;13.192;2023-04-25T09:59:38;6.93;;;2.23;;
9809;SDS011;4944;52.514;13.192;2023-04-25T10:02:08;3.40;;;1.93;;
9809;SDS011;4944;52.514;13.192;2023-04-25T10:04:36;7.57;;;2.10;;
9809;SDS011;4944;52.514;13.192;2023-04-25T10:07:05;4.17;;;2.13;;
9809;SDS011;4944;52.514;13.192;2023-04-25T10:09:33;7.03;;;2.33;;
9809;SDS011;4944;52.514;13.192;2023-04-25T10:12:03;7.23;;;2.43;;
9809;SDS011;4944;52.514;13.192;2023-04-25T10:14:31;6.03;;;2.70;;
9809;SDS011;4944;52.514;13.192;2023-04-25T10:16:58;6.30;;;2.20;;
9809;SDS011;4944;52.514;13.192;2023-04-25T10:19:26;8.37;;;2.30;;
9809;SDS011;4944;52.514;13.192;2023-04-25T10:21:55;6.83;;;2.37;;
9809;SDS011;4944;52.514;13.192;2023-04-25T10:24:28;6.77;;;2.10;;
9809;SDS011;4944;52.514;13.192;2023-04-25T10:26:55;7.47;;;2.93;;
9809;SDS011;4944;52.514;13.192;2023-04-25T10:29:25;4.00;;;2.00;;
9809;SDS011;4944;52.514;13.192;2023-04-25T10:31:52;5.53;;;2.37;;
9809;SDS011;4944;52.514;13.192;2023-04-25T10:34:23;7.17;;;2.20;;
9809;SDS011;4944;52.514;13.192;2023-04-25T10:37:03;6.10;;;2.37;;
9809;SDS011;4944;52.514;13.192;2023-04-25T10:39:30;6.37;;;2.30;;
9809;SDS011;4944;52.514;13.192;2023-04-25T10:41:59;9.30;;;2.40;;
9809;SDS011;4944;52.514;13.192;2023-04-25T10:44:29;5.50;;;2.30;;
9809;SDS011;4944;52.514;13.192;2023-04-25T10:46:57;5.93;;;2.00;;
9809;SDS011;4944;52.514;13.192;2023-04-25T10:49:29;5.37;;;1.87;;
9809;SDS011;4944;52.514;13.192;2023-04-25T10:52:14;4.70;;;2.13;;
9809;SDS011;4944;52.514;13.192;2023-04-25T10:54:51;4.67;;;1.80;;
9809;SDS011;4944;52.514;13.192;2023-04-25T10:57:29;6.87;;;2.30;;
9809;SDS011;4944;52.514;13.192;2023-04-25T10:59:59;4.53;;;1.97;;
9809;SDS011;4944;52.514;13.192;2023-04-25T11:02:28;5.10;;;1.73;;
9809;SDS011;4944;52.514;13.192;2023-04-25T11:04:55;4.33;;;2.40;;
9809;SDS011;4944;52.514;13.192;2023-04-25T11:07:25;5.07;;;2.20;;
9809;SDS011;4944;52.514;13.192;2023-04-25T11:09:58;4.90;;;1.87;;
9809;SDS011;4944;52.514;13.192;2023-04-25T11:12:29;3.87;;;1.90;;
9809;SDS011;4944;52.514;13.192;2023-04-25T11:15:01;3.83;;;1.70;;
9809;SDS011;4944;52.514;13.192;2023-04-25T11:17:29;4.00;;;1.73;;
9809;SDS011;4944;52.514;13.192;2023-04-25T11:19:56;2.07;;;1.47;;
9809;SDS011;4944;52.514;13.192;2023-04-25T11:22:23;5.87;;;1.70;;
9809;SDS011;4944;52.514;13.192;2023-04-25T11:24:52;4.33;;;1.43;;
9809;SDS011;4944;52.514;13.192;2023-04-25T11:27:19;2.80;;;1.40;;
9809;SDS011;4944;52.514;13.192;2023-04-25T11:29:49;5.57;;;1.80;;
9809;SDS011;4944;52.514;13.192;2023-04-25T11:32:18;5.93;;;2.00;;
9809;SDS011;4944;52.514;13.192;2023-04-25T11:34:45;5.20;;;1.80;;
9809;SDS011;4944;52.514;13.192;2023-04-25T11:37:13;4.60;;;2.00;;
9809;SDS011;4944;52.514;13.192;2023-04-25T11:39:44;3.63;;;1.70;;
9809;SDS011;4944;52.514;13.192;2023-04-25T11:42:12;7.70;;;2.00;;
9809;SDS011;4944;52.514;13.192;2023-04-25T11:44:39;5.07;;;2.00;;
9809;SDS011;4944;52.514;13.192;2023-04-25T11:47:06;3.30;;;1.50;;
9809;SDS011;4944;52.514;13.192;2023-04-25T11:49:35;7.33;;;2.10;;
9809;SDS011;4944;52.514;13.192;2023-04-25T11:52:02;4.27;;;2.13;;
9809;SDS011;4944;52.514;13.192;2023-04-25T11:54:29;4.30;;;1.80;;
9809;SDS011;4944;52.514;13.192;2023-04-25T11:56:56;5.27;;;1.87;;
9809;SDS011;4944;52.514;13.192;2023-04-25T11:59:23;5.93;;;2.20;;
9809;SDS011;4944;52.514;13.192;2023-04-25T12:01:51;4.20;;;2.17;;
9809;SDS011;4944;52.514;13.192;2023-04-25T12:04:20;5.17;;;1.77;;
9809;SDS011;4944;52.514;13.192;2023-04-25T12:06:49;5.10;;;1.90;;
9809;SDS011;4944;52.514;13.192;2023-04-25T12:09:18;3.63;;;1.83;;
9809;SDS011;4944;52.514;13.192;2023-04-25T12:11:47;2.80;;;1.30;;
9809;SDS011;4944;52.514;13.192;2023-04-25T12:14:22;3.27;;;1.50;;
9809;SDS011;4944;52.514;13.192;2023-04-25T12:16:50;4.90;;;1.63;;
9809;SDS011;4944;52.514;13.192;2023-04-25T12:19:19;4.23;;;2.10;;
9809;SDS011;4944;52.514;13.192;2023-04-25T12:21:46;4.70;;;1.80;;
9809;SDS011;4944;52.514;13.192;2023-04-25T12:24:16;5.83;;;2.23;;
9809;SDS011;4944;52.514;13.192;2023-04-25T12:26:49;6.70;;;2.00;;
9809;SDS011;4944;52.514;13.192;2023-04-25T12:29:17;4.57;;;2.10;;
9809;SDS011;4944;52.514;13.192;2023-04-25T12:31:46;6.57;;;1.87;;
9809;SDS011;4944;52.514;13.192;2023-04-25T12:34:13;4.67;;;1.83;;
9809;SDS011;4944;52.514;13.192;2023-04-25T12:36:40;3.77;;;1.60;;
9809;SDS011;4944;52.514;13.192;2023-04-25T12:39:09;2.63;;;1.53;;
9809;SDS011;4944;52.514;13.192;2023-04-25T12:41:41;3.27;;;2.07;;
9809;SDS011;4944;52.514;13.192;2023-04-25T12:44:08;3.07;;;1.63;;
9809;SDS011;4944;52.514;13.192;2023-04-25T12:46:35;5.63;;;1.90;;
9809;SDS011;4944;52.514;13.192;2023-04-25T12:49:03;4.70;;;1.70;;
9809;SDS011;4944;52.514;13.192;2023-04-25T12:51:31;3.47;;;1.67;;
9809;SDS011;4944;52.514;13.192;2023-04-25T12:53:58;4.17;;;1.70;;
9809;SDS011;4944;52.514;13.192;2023-04-25T12:56:26;4.40;;;1.80;;
9809;SDS011;4944;52.514;13.192;2023-04-25T12:58:53;3.33;;;1.90;;
9809;SDS011;4944;52.514;13.192;2023-04-25T13:01:20;3.17;;;1.70;;
9809;SDS011;4944;52.514;13.192;2023-04-25T13:03:48;3.13;;;1.50;;
9809;SDS011;4944;52.514;13.192;2023-04-25T13:06:16;2.77;;;1.37;;
9809;SDS011;4944;52.514;13.192;2023-04-25T13:08:44;4.83;;;1.50;;
9809;SDS011;4944;52.514;13.192;2023-04-25T13:11:11;5.97;;;1.60;;
9809;SDS011;4944;52.514;13.192;2023-04-25T13:13:41;4.00;;;1.47;;
9809;SDS011;4944;52.514;13.192;2023-04-25T13:16:08;3.60;;;1.47;;
9809;SDS011;4944;52.514;13.192;2023-04-25T13:18:35;4.00;;;1.40;;
9809;SDS011;4944;52.514;13.192;2023-04-25T13:21:03;4.50;;;1.60;;
9809;SDS011;4944;52.514;13.192;2023-04-25T13:23:29;3.93;;;1.53;;
9809;SDS011;4944;52.514;13.192;2023-04-25T13:25:57;1.30;;;1.20;;
9809;SDS011;4944;52.514;13.192;2023-04-25T13:28:25;3.17;;;1.60;;
9809;SDS011;4944;52.514;13.192;2023-04-25T13:30:54;4.37;;;1.60;;
9809;SDS011;4944;52.514;13.192;2023-04-25T13:33:21;4.83;;;1.57;;
9809;SDS011;4944;52.514;13.192;2023-04-25T13:35:48;2.80;;;1.43;;
9809;SDS011;4944;52.514;13.192;2023-04-25T13:38:19;4.80;;;1.70;;
9809;SDS011;4944;52.514;13.192;2023-04-25T13:40:47;3.67;;;1.70;;
9809;SDS011;4944;52.514;13.192;2023-04-25T13:43:14;2.53;;;1.50;;
9809;SDS011;4944;52.514;13.192;2023-04-25T13:45:43;3.23;;;1.50;;
9809;SDS011;4944;52.514;13.192;2023-04-25T13:48:12;2.53;;;1.50;;
9809;SDS011;4944;52.514;13.192;2023-04-25T13:50:39;3.63;;;1.63;;
9809;SDS011;4944;52.514;13.192;2023-04-25T13:53:06;3.70;;;1.60;;
9809;SDS011;4944;52.514;13.192;2023-04-25T13:55:36;3.97;;;1.60;;
9809;SDS011;4944;52.514;13.192;2023-04-25T13:58:04;2.50;;;1.40;;
9809;SDS011;4944;52.514;13.192;2023-04-25T14:00:33;4.37;;;1.60;;
9809;SDS011;4944;52.514;13.192;2023-04-25T14:03:03;3.23;;;1.70;;
9809;SDS011;4944;52.514;13.192;2023-04-25T14:05:33;6.60;;;1.67;;
9809;SDS011;4944;52.514;13.192;2023-04-25T14:08:04;2.43;;;1.23;;
9809;SDS011;4944;52.514;13.192;2023-04-25T14:10:32;2.87;;;1.40;;
9809;SDS011;4944;52.514;13.192;2023-04-25T14:12:59;4.17;;;1.27;;
9809;SDS011;4944;52.514;13.192;2023-04-25T14:15:28;4.83;;;1.40;;
9809;SDS011;4944;52.514;13.192;2023-04-25T14:17:55;2.83;;;1.20;;
9809;SDS011;4944;52.514;13.192;2023-04-25T14:20:22;3.40;;;1.47;;
9809;SDS011;4944;52.514;13.192;2023-04-25T14:22:51;3.37;;;1.53;;
9809;SDS011;4944;52.514;13.192;2023-04-25T14:25:19;4.63;;;1.30;;
9809;SDS011;4944;52.514;13.192;2023-04-25T14:27:46;3.00;;;1.50;;
9809;SDS011;4944;52.514;13.192;2023-04-25T14:30:15;4.67;;;1.67;;
9809;SDS011;4944;52.514;13.192;2023-04-25T14:32:42;2.40;;;1.20;;
9809;SDS011;4944;52.514;13.192;2023-04-25T14:35:09;2.37;;;1.30;;
9809;SDS011;4944;52.514;13.192;2023-04-25T14:37:37;2.63;;;1.40;;
9809;SDS011;4944;52.514;13.192;2023-04-25T14:40:06;1.67;;;1.10;;
9809;SDS011;4944;52.514;13.192;2023-04-25T14:42:35;1.90;;;1.07;;
9809;SDS011;4944;52.514;13.192;2023-04-25T14:45:02;4.27;;;1.47;;
9809;SDS011;4944;52.514;13.192;2023-04-25T14:47:29;2.10;;;1.23;;
9809;SDS011;4944;52.514;13.192;2023-04-25T14:49:56;4.60;;;1.70;;
9809;SDS011;4944;52.514;13.192;2023-04-25T14:52:23;3.10;;;1.60;;
9809;SDS011;4944;52.514;13.192;2023-04-25T14:54:50;4.93;;;1.80;;
9809;SDS011;4944;52.514;13.192;2023-04-25T14:57:19;3.47;;;1.40;;
9809;SDS011;4944;52.514;13.192;2023-04-25T14:59:46;4.87;;;1.50;;
9809;SDS011;4944;52.514;13.192;2023-04-25T15:02:13;2.70;;;1.13;;
9809;SDS011;4944;52.514;13.192;2023-04-25T15:04:40;3.40;;;1.27;;